Flight Track Log - Related Links

Times and Time Zones

All times are in EDT time to prevent confusion due to time zone crossing. See the CSN6873 flight status page for this flight to view local times or setup timezone preferences in your user account.

Time Position Orientation Groundspeed Altitude Reporting Facility
EDT Latitude Longitude Course Direction KTS MPH feet Rate Location/Type
Sun 08:40:00 PM 43.8158 87.2727 238° Southwest  Level Estimated
Sun 08:41:00 PM 43.7241 87.0719 238° Southwest  Level Estimated
Sun 08:42:00 PM 43.6321 86.8716 238° Southwest  Level Estimated
Sun 08:43:00 PM 43.5397 86.6719 237° Southwest  Level Estimated
Sun 08:44:00 PM 43.4470 86.4729 237° Southwest  Level Estimated
Sun 08:45:00 PM 43.3539 86.2744 237° Southwest  Level Estimated
Sun 08:46:00 PM 43.2605 86.0766 237° Southwest  Level Estimated
Sun 08:47:00 PM 43.1667 85.8794 237° Southwest  Level Estimated
Sun 08:48:00 PM 43.0726 85.6828 237° Southwest  Level Estimated
Sun 08:49:00 PM 42.9782 85.4868 237° Southwest  Level Estimated
Sun 08:50:00 PM 42.8835 85.2914 237° Southwest  Level Estimated
Sun 08:51:00 PM 42.7884 85.0965 236° Southwest  Level Estimated
Sun 08:52:00 PM 42.6930 84.9023 236° Southwest  Level Estimated
Sun 08:53:00 PM 42.5972 84.7087 236° Southwest  Level Estimated
Sun 08:54:00 PM 42.5011 84.5157 236° Southwest  Level Estimated
Sun 08:55:00 PM 42.4047 84.3233 236° Southwest  Level Estimated
Sun 08:56:00 PM 42.3080 84.1315 236° Southwest  Level Estimated
Sun 08:57:00 PM 42.2110 83.9402 236° Southwest  Level Estimated
Sun 08:58:00 PM 42.1137 83.7496 236° Southwest  Level Estimated
Sun 08:59:00 PM 42.0160 83.5595 235° Southwest  Level Estimated
Sun 09:00:00 PM 41.9180 83.3700 235° Southwest  Level Estimated
Sun 09:01:00 PM 41.8197 83.1811 235° Southwest  Level Estimated
Sun 09:02:00 PM 41.7211 82.9928 235° Southwest  Level Estimated
Sun 09:03:00 PM 41.7181 82.9869 235° Southwest  Level Estimated
Sun 09:04:00 PM 41.7181 82.9869 143° Southeast  Level Estimated
Sun 09:05:00 PM 41.7181 82.9869 143° Southeast  Level Estimated
Sun 09:06:00 PM 41.7181 82.9869 143° Southeast  Level Estimated
Sun 09:07:00 PM 41.7181 82.9869 143° Southeast  Level Estimated
Sun 09:08:00 PM 41.7181 82.9869 143° Southeast  Level Estimated
Sun 09:09:00 PM 41.7181 82.9869 143° Southeast  Level Estimated
Sun 09:10:00 PM 41.7181 82.9869 143° Southeast  Level Estimated
Sun 09:11:00 PM 41.7181 82.9869 143° Southeast  Level Estimated
Sun 09:12:00 PM 41.7181 82.9869 143° Southeast  Level Estimated
Sun 09:13:00 PM 41.7181 82.9869 143° Southeast  Level Estimated
Sun 09:14:00 PM 41.7181 82.9869 143° Southeast  Level Estimated
Sun 09:15:00 PM 41.7181 82.9869 143° Southeast  Level Estimated
Sun 09:16:00 PM 41.7181 82.9869 143° Southeast  Level Estimated
Sun 09:17:00 PM 41.7181 82.9869 143° Southeast  Level Estimated

Login

Don't have an account? Register now (free) for customized features, flight alerts, and more!